Terminal Aerodrome Forecast
Issued by NWS

Home | Current Version | Previous Version | Text Only | Print | Product List | Glossary On
Versions: 1 2 3 4 5 6 7 8 9 10 11 12 13 14 15 16 17 18 19 20
000
FTUS41 KPBZ 270533
TAFDUJ
TAF
KDUJ 270533Z 2706/2806 15008KT P6SM SCT250
     FM271700 16011G22KT P6SM SCT250
     FM272100 17011G22KT 5SM -SHRA VCTS BKN070CB
     FM280000 19007KT P6SM BKN015=

USA.gov is the U.S. government's official web portal to all federal, state and local government web resources and services.